Data for 11/16/2008

Time Sea-Level Adjusted Pressure Absolute Pressure Temperature Relative Humidity Dew Point   
(mb) (inHg) (mb) (inHg) (C) (F) (%) (C) (F)
00:05 1024 30.24 853 25.19 8 46.4 53 -0.9 30.4
00:10 1024 30.24 853 25.19 7.9 46.2 54 -0.9 30.3
00:15 1024 30.24 853 25.19 7.9 46.3 54 -0.9 30.4
00:20 1024 30.24 853 25.19 7.9 46.1 53 -1 30.2
00:25 1024 30.24 853 25.19 7.8 46.1 54 -1 30.3
00:30 1024 30.24 853 25.19 7.7 45.9 54 -1 30.1
00:35 1023 30.21 853 25.19 7.7 45.8 54 -1.1 30.1
00:40 1023 30.21 853 25.19 7.7 45.8 54 -1.1 30.1
00:45 1023 30.21 853 25.19 7.7 45.8 54 -1.1 30.1
00:50 1023 30.21 853 25.19 7.8 46.1 53 -1.1 29.9
00:55 1023 30.21 853 25.19 7.9 46.3 52 -1.2 29.9
01:00 1023 30.21 852 25.16 8 46.3 53 -1 30.1
01:05 1023 30.21 853 25.19 7.7 45.8 54 -1.1 30.1
01:10 1023 30.21 853 25.19 7.5 45.5 55 -1 30.2
01:15 1023 30.21 852 25.16 7.3 45.1 55 -1.1 30
01:20 1023 30.21 853 25.19 7.3 45.1 55 -1.2 29.8
01:25 1023 30.21 853 25.19 7.3 45.2 54 -1.3 29.6
01:30 1023 30.21 852 25.16 7.7 45.8 52 -1.5 29.4
01:35 1023 30.21 852 25.16 7.7 45.8 53 -1.2 29.9
01:40 1023 30.21 853 25.19 7.7 45.8 53 -1.4 29.5
01:45 1023 30.21 853 25.19 7.7 45.9 54 -1 30.2
01:50 1024 30.24 853 25.19 6.9 44.5 56 -1.3 29.6
01:55 1024 30.24 853 25.19 7.3 45.1 53 -1.6 29.1
02:00 1024 30.24 853 25.19 7.5 45.4 55 -1.1 30
02:05 1024 30.24 853 25.19 7 44.7 56 -1.2 29.8
02:10 1024 30.24 853 25.19 6.9 44.4 56 -1.3 29.7
02:15 1024 30.24 853 25.19 6.7 44 57 -1.2 29.9
02:20 1024 30.24 853 25.19 6.5 43.8 57 -1.3 29.7
02:25 1024 30.24 853 25.19 6.4 43.6 59 -1 30.2
02:30 1024 30.24 853 25.19 5.9 42.6 61 -1.1 30
02:35 1023 30.21 853 25.19 5.7 42.3 60 -1.4 29.5
02:40 1023 30.21 853 25.19 6.1 43 59 -1.4 29.5
02:45 1024 30.24 853 25.19 6.5 43.7 58 -1.2 29.9
02:50 1024 30.24 853 25.19 6.6 43.8 56 -1.5 29.3
02:55 1023 30.21 853 25.19 6.8 44.3 58 -0.8 30.5
03:00 1023 30.21 853 25.19 6.7 44 58 -0.9 30.3
03:05 1023 30.21 853 25.19 6.7 44 57 -1.2 29.9
03:10 1023 30.21 853 25.19 6.8 44.2 57 -1.3 29.7
03:15 1023 30.21 853 25.19 6.9 44.5 57 -1.1 30.1
03:20 1023 30.21 853 25.19 6.9 44.4 56 -1.3 29.7
03:25 1023 30.21 852 25.16 6.8 44.3 58 -0.9 30.4
03:30 1023 30.21 852 25.16 6.4 43.5 60 -0.7 30.7
03:35 1023 30.21 852 25.16 6.1 43 61 -1 30.3
03:40 1023 30.21 852 25.16 6 42.8 61 -1 30.2
03:45 1023 30.21 852 25.16 5.9 42.7 61 -1 30.3
03:50 1023 30.21 852 25.16 6.2 43.2 61 -0.8 30.6
03:55 1023 30.21 852 25.16 6.1 43 60 -1 30.2
04:00 1023 30.21 852 25.16 6.6 43.8 58 -1 30.2
04:05 1023 30.21 852 25.16 6.4 43.5 59 -1.1 30
04:10 1023 30.21 852 25.16 6.4 43.6 59 -1 30.2
04:15 1023 30.21 852 25.16 6.6 43.9 57 -1.3 29.7
04:20 1023 30.21 852 25.16 6.5 43.8 59 -0.8 30.5
04:25 1023 30.21 852 25.16 6 42.7 62 -0.8 30.5
04:30 1023 30.21 852 25.16 5.6 42.1 62 -1.1 30
04:35 1023 30.21 852 25.16 5.3 41.5 66 -0.6 31
04:40 1023 30.21 852 25.16 5.1 41.1 65 -1 30.3
04:45 1023 30.21 852 25.16 5.2 41.3 64 -1 30.2
04:50 1023 30.21 852 25.16 5.6 42.1 60 -1.4 29.5
04:55 1023 30.21 852 25.16 6 42.8 60 -1.3 29.7
05:00 1023 30.21 852 25.16 6.2 43.1 59 -1.3 29.7
05:05 1023 30.21 852 25.16 6.4 43.5 58 -1.2 29.8
05:10 1023 30.21 852 25.16 6.4 43.5 59 -1.1 30.1
05:15 1023 30.21 852 25.16 6.4 43.4 57 -1.5 29.3
05:20 1023 30.21 852 25.16 6.7 44 54 -2.1 28.3
05:25 1023 30.21 852 25.16 7 44.5 55 -1.3 29.6
05:30 1023 30.21 852 25.16 6.6 43.9 57 -1.2 29.8
05:35 1023 30.21 852 25.16 6.3 43.3 58 -1.3 29.6
05:40 1023 30.21 852 25.16 6.2 43.1 53 -2.6 27.3
05:45 1023 30.21 852 25.16 6.4 43.5 56 -1.8 28.7
05:50 1023 30.21 852 25.16 6.3 43.4 56 -1.7 29
05:55 1023 30.21 852 25.16 6.1 42.9 58 -1.5 29.2
06:00 1023 30.21 852 25.16 5.7 42.2 59 -1.7 28.9
06:05 1023 30.21 852 25.16 5.8 42.5 52 -3.1 26.4
06:10 1023 30.21 852 25.16 6.5 43.8 50 -3.1 26.4
06:15 1023 30.21 852 25.16 6.8 44.3 50 -2.8 26.9
06:20 1023 30.21 852 25.16 6.5 43.7 50 -3.2 26.3
06:25 1023 30.21 852 25.16 6.5 43.7 51 -3 26.6
06:30 1023 30.21 852 25.16 6.4 43.5 53 -2.6 27.3
06:35 1023 30.21 852 25.16 5.9 42.7 57 -1.8 28.8
06:40 1023 30.21 852 25.16 5.9 42.6 53 -2.9 26.8
06:45 1023 30.21 852 25.16 6.3 43.4 55 -2 28.3
06:50 1023 30.21 852 25.16 5.9 42.5 60 -1.3 29.7
06:55 1023 30.21 852 25.16 5.1 41.1 62 -1.6 29.2
07:00 1023 30.21 852 25.16 5.2 41.3 61 -1.7 28.9
07:05 1023 30.21 852 25.16 5.2 41.4 61 -1.7 28.9
07:10 1023 30.21 852 25.16 5.3 41.6 61 -1.6 29
07:15 1023 30.21 852 25.16 5.6 42 59 -1.7 28.9
07:20 1023 30.21 852 25.16 5.5 41.8 60 -1.6 29.1
07:25 1023 30.21 852 25.16 5.4 41.7 59 -2.1 28.3
07:30 1023 30.21 852 25.16 5.6 42.1 60 -1.5 29.2
07:35 1023 30.21 852 25.16 5.2 41.4 62 -1.6 29.2
07:40 1023 30.21 852 25.16 4.9 40.8 62 -1.7 28.9
07:45 1023 30.21 852 25.16 5 41.1 61 -1.8 28.8
07:50 1023 30.21 852 25.16 5.2 41.3 60 -1.8 28.7
07:55 1023 30.21 852 25.16 5.2 41.4 60 -1.8 28.7
08:00 1023 30.21 852 25.16 5.2 41.3 59 -2.2 28
08:05 1023 30.21 852 25.16 5.5 41.9 57 -2.4 27.6
08:10 1023 30.21 852 25.16 5.7 42.3 57 -2 28.3
08:15 1023 30.21 852 25.16 5.7 42.3 57 -2 28.3
08:20 1023 30.21 852 25.16 5.7 42.3 57 -2.3 27.9
08:25 1023 30.21 852 25.16 5.8 42.4 57 -2.2 28.1
08:30 1023 30.21 853 25.19 5.8 42.4 58 -1.8 28.7
08:35 1023 30.21 853 25.19 5.7 42.2 57 -2.1 28.2
08:40 1023 30.21 853 25.19 5.9 42.7 58 -1.8 28.8
08:45 1023 30.21 853 25.19 5.8 42.4 58 -1.9 28.6
08:50 1023 30.21 853 25.19 5.9 42.6 60 -1.2 29.8
08:55 1023 30.21 853 25.19 6.1 43 56 -2.1 28.2
09:00 1023 30.21 853 25.19 6.5 43.6 57 -1.4 29.5
09:05 1023 30.21 853 25.19 6.3 43.4 58 -1.4 29.5
09:10 1023 30.21 853 25.19 6.5 43.8 56 -1.6 29.1
09:15 1024 30.24 853 25.19 6.7 44 56 -1.4 29.4
09:20 1023 30.21 853 25.19 7.1 44.7 54 -1.6 29.1
09:25 1023 30.21 853 25.19 7.5 45.5 55 -1 30.1
09:30 1023 30.21 853 25.19 7.6 45.7 52 -1.6 29.1
09:35 1023 30.21 853 25.19 8.1 46.5 50 -1.8 28.8
09:40 1023 30.21 853 25.19 8.5 47.4 48 -1.9 28.7
09:45 1023 30.21 853 25.19 9.1 48.3 46 -2 28.4
09:50 1023 30.21 853 25.19 9.3 48.8 44 -2.2 28.1
09:55 1024 30.24 853 25.19 9.7 49.4 43 -2.2 28.1
10:00 1024 30.24 853 25.19 10.2 50.3 39 -3.3 26.1
10:05 1024 30.24 853 25.19 10.3 50.6 39 -3 26.6
10:10 1024 30.24 853 25.19 10 50 39 -3.3 26.1
10:15 1024 30.24 853 25.19 10 49.9 38 -3.6 25.5
10:20 1024 30.24 853 25.19 9.9 49.9 39 -3.4 25.8
10:25 1024 30.24 853 25.19 9.9 49.8 38 -3.7 25.4
10:30 1023 30.21 853 25.19 10 49.9 38 -3.5 25.7
10:35 1024 30.24 853 25.19 10 50 37 -4.1 24.7
10:40 1024 30.24 853 25.19 10 50.1 35 -4.9 23.2
10:45 1023 30.21 853 25.19 9.7 49.4 36 -4.5 23.9
10:50 1023 30.21 853 25.19 9.3 48.8 38 -4.2 24.4
10:55 1023 30.21 853 25.19 9.3 48.8 38 -4.4 24.1
11:00 1024 30.24 853 25.19 9.3 48.8 38 -4.3 24.2
11:05 1024 30.24 853 25.19 9.7 49.5 37 -4.1 24.6
11:10 1023 30.21 853 25.19 9.9 49.9 36 -4.3 24.3
11:15 1023 30.21 853 25.19 10.1 50.2 37 -4 24.8
11:20 1024 30.24 853 25.19 10 50 35 -4.7 23.6
11:25 1024 30.24 853 25.19 10.6 51.1 33 -5.1 22.9
11:30 1024 30.24 853 25.19 11.4 52.5 31 -5 23
11:35 1023 30.21 853 25.19 11.6 52.9 32 -4.4 24
11:40 1024 30.24 853 25.19 11.5 52.7 31 -4.8 23.4
11:45 1024 30.24 853 25.19 11 51.9 34 -4.3 24.3
11:50 1024 30.24 853 25.19 11 51.7 34 -4.2 24.4
11:55 1024 30.24 853 25.19 10.8 51.5 34 -4.3 24.3
12:00 1024 30.24 853 25.19 10.7 51.2 36 -3.9 24.9
12:05 1024 30.24 853 25.19 10.1 50.2 36 -4.1 24.6
12:10 1023 30.21 853 25.19 10.5 50.8 36 -4 24.7
12:15 1024 30.24 853 25.19 10.7 51.2 36 -3.8 25.2
12:20 1023 30.21 853 25.19 10.6 51.1 36 -3.7 25.4
12:25 1023 30.21 853 25.19 10.8 51.5 35 -3.9 25
12:30 1023 30.21 853 25.19 11.2 52.2 35 -3.5 25.7
12:35 1023 30.21 853 25.19 10.5 51 37 -3.4 25.9
12:40 1023 30.21 852 25.16 10.7 51.2 36 -3.7 25.4
12:45 1023 30.21 852 25.16 10.8 51.5 36 -3.5 25.7
12:50 1023 30.21 852 25.16 10.7 51.2 36 -3.7 25.4
12:55 1023 30.21 852 25.16 11.1 52 34 -4.1 24.6
13:00 1023 30.21 852 25.16 11.7 53 33 -4.1 24.7
13:05 1023 30.21 852 25.16 11.9 53.5 33 -3.9 25
13:10 1023 30.21 852 25.16 12.1 53.8 31 -4.4 24
13:15 1023 30.21 852 25.16 12.2 54 32 -3.9 25
13:20 1023 30.21 852 25.16 12.3 54.1 32 -3.8 25.2
13:25 1023 30.21 852 25.16 11.9 53.4 34 -3.6 25.6
13:30 1023 30.21 852 25.16 11.9 53.4 33 -3.8 25.2
13:35 1023 30.21 852 25.16 11.8 53.3 33 -3.8 25.1
13:40 1023 30.21 852 25.16 11.9 53.4 34 -3.6 25.5
13:45 1023 30.21 852 25.16 11.9 53.5 32 -4 24.7
13:50 1023 30.21 852 25.16 11.8 53.3 33 -4 24.7
13:55 1023 30.21 852 25.16 11.6 52.9 33 -4.3 24.3
14:00 1023 30.21 852 25.16 11.7 53.1 33 -3.9 25
14:05 1023 30.21 852 25.16 12.2 54 32 -3.9 24.9
14:10 1023 30.21 852 25.16 12.7 54.8 31 -3.9 25
14:15 1023 30.21 852 25.16 12.6 54.7 31 -4.2 24.5
14:20 1023 30.21 852 25.16 12.5 54.5 30 -4.7 23.6
14:25 1023 30.21 852 25.16 12.7 54.8 30 -4.6 23.8
14:30 1023 30.21 852 25.16 12.6 54.7 31 -4.1 24.6
14:35 1023 30.21 852 25.16 12.4 54.2 32 -4 24.9
14:40 1023 30.21 852 25.16 12.4 54.4 31 -4.1 24.7
14:45 1023 30.21 852 25.16 12.5 54.5 32 -3.9 25.1
14:50 1023 30.21 852 25.16 12.7 54.8 30 -4.3 24.3
14:55 1023 30.21 852 25.16 12.6 54.6 31 -4.2 24.4
15:00 1023 30.21 852 25.16 12.4 54.3 31 -4.3 24.2
15:05 1023 30.21 852 25.16 12.8 55.1 30 -4.4 24.1
15:10 1023 30.21 852 25.16 12.7 54.9 30 -4.2 24.4
15:15 1023 30.21 852 25.16 12.6 54.8 31 -4.1 24.6
15:20 1023 30.21 852 25.16 12.8 55.1 30 -4.3 24.2
15:25 1023 30.21 852 25.16 13.2 55.7 30 -4 24.8
15:30 1023 30.21 852 25.16 12.9 55.2 33 -3 26.6
15:35 1023 30.21 852 25.16 12.1 53.7 34 -3.3 26
15:40 1023 30.21 852 25.16 12 53.6 33 -3.7 25.4
15:45 1023 30.21 852 25.16 12 53.7 34 -3.3 26
15:50 1023 30.21 852 25.16 11.9 53.5 33 -3.6 25.5
15:55 1023 30.21 852 25.16 12.5 54.4 31 -4.1 24.7
16:00 1023 30.21 852 25.16 12.9 55.3 31 -3.7 25.4
16:05 1023 30.21 852 25.16 12.7 54.9 31 -3.9 25
16:10 1023 30.21 852 25.16 12.7 54.8 31 -3.7 25.3
16:15 1023 30.21 852 25.16 12.5 54.5 32 -3.8 25.2
16:20 1023 30.21 852 25.16 12.5 54.4 32 -3.8 25.2
16:25 1023 30.21 852 25.16 12.3 54.1 32 -3.8 25.2
16:30 1023 30.21 852 25.16 12 53.5 33 -3.9 25
16:35 1023 30.21 852 25.16 11.8 53.3 32 -4.2 24.4
16:40 1023 30.21 852 25.16 11.7 53.1 33 -4.1 24.6
16:45 1023 30.21 852 25.16 11.6 52.9 32 -4.5 23.9
16:50 1023 30.21 852 25.16 11.5 52.7 32 -4.5 23.9
16:55 1023 30.21 852 25.16 11.5 52.7 32 -4.6 23.7
17:00 1023 30.21 852 25.16 11.4 52.5 32 -4.6 23.6
17:05 1023 30.21 852 25.16 11.4 52.5 31 -4.9 23.2
17:10 1023 30.21 852 25.16 11.4 52.5 32 -4.9 23.3
17:15 1023 30.21 852 25.16 11.4 52.6 32 -4.7 23.5
17:20 1023 30.21 852 25.16 11.4 52.5 32 -4.8 23.4
17:25 1023 30.21 853 25.19 11.3 52.4 33 -4.3 24.3
17:30 1023 30.21 853 25.19 11.1 51.9 34 -4.2 24.4
17:35 1023 30.21 853 25.19 10.9 51.6 33 -4.6 23.8
17:40 1023 30.21 853 25.19 10.8 51.5 34 -4.5 23.8
17:45 1023 30.21 853 25.19 10.7 51.3 34 -4.6 23.8
17:50 1024 30.24 853 25.19 10.7 51.3 34 -4.6 23.7
17:55 1024 30.24 853 25.19 10.6 51.1 34 -4.6 23.8
18:00 1024 30.24 853 25.19 10.4 50.8 34 -4.6 23.8
18:05 1024 30.24 853 25.19 10.3 50.5 35 -4.6 23.7
18:10 1024 30.24 853 25.19 10.2 50.4 35 -4.4 24.1
18:15 1024 30.24 853 25.19 10.2 50.3 34 -5.1 22.8
18:20 1024 30.24 853 25.19 10.4 50.6 33 -5.1 22.7
18:25 1024 30.24 853 25.19 10.5 50.8 33 -5.2 22.7
18:30 1024 30.24 853 25.19 10.5 50.9 33 -4.9 23.2
18:35 1024 30.24 853 25.19 10.3 50.5 34 -5 23
18:40 1024 30.24 853 25.19 10.2 50.4 33 -5.2 22.7
18:45 1024 30.24 853 25.19 10.1 50.1 33 -5.3 22.5
18:50 1024 30.24 853 25.19 10.1 50.2 33 -5.5 22.1
18:55 1024 30.24 853 25.19 10.2 50.3 32 -5.6 21.9
19:00 1024 30.24 853 25.19 10 49.9 33 -5.5 22.1
19:05 1024 30.24 853 25.19 9.9 49.8 33 -5.4 22.2
19:10 1024 30.24 853 25.19 9.9 49.7 33 -5.8 21.6
19:15 1024 30.24 853 25.19 9.9 49.8 36 -4.4 24.1
19:20 1024 30.24 853 25.19 9.2 48.5 38 -4.4 24.1
19:25 1024 30.24 853 25.19 8.9 48 38 -4.7 23.5
19:30 1024 30.24 853 25.19 8.9 48 37 -4.9 23.2
19:35 1024 30.24 853 25.19 9.1 48.3 36 -5.4 22.3
19:40 1024 30.24 853 25.19 9.6 49.2 35 -5.3 22.5
19:45 1024 30.24 853 25.19 9.9 49.8 33 -5.4 22.2
19:50 1024 30.24 853 25.19 9.6 49.4 35 -5.1 22.9
19:55 1024 30.24 853 25.19 9.1 48.4 36 -5.1 22.8
20:00 1024 30.24 853 25.19 9.1 48.3 35 -5.7 21.8
20:05 1024 30.24 853 25.19 9.4 49 33 -6 21.2
20:10 1024 30.24 853 25.19 9.7 49.4 33 -5.6 21.9
20:15 1024 30.24 854 25.22 9.5 49.1 34 -5.7 21.7
20:20 1024 30.24 854 25.22 9.3 48.8 34 -5.7 21.7
20:25 1024 30.24 854 25.22 9.7 49.5 32 -6 21.1
20:30 1024 30.24 854 25.22 10.1 50.1 32 -5.7 21.7
20:35 1024 30.24 854 25.22 10.1 50.2 32 -6 21.2
20:40 1024 30.24 854 25.22 10.1 50.2 32 -5.8 21.6
20:45 1024 30.24 854 25.22 10 50 32 -5.9 21.4
20:50 1024 30.24 854 25.22 10.3 50.5 31 -6 21.2
20:55 1024 30.24 854 25.22 10.2 50.3 32 -5.9 21.4
21:00 1025 30.27 854 25.22 10.1 50.1 32 -5.7 21.8
21:05 1024 30.24 854 25.22 10.1 50.1 32 -5.8 21.6
21:10 1025 30.27 854 25.22 10.2 50.4 31 -6 21.2
21:15 1025 30.27 854 25.22 10.3 50.6 31 -6 21.2
21:20 1024 30.24 854 25.22 10.3 50.6 32 -5.7 21.7
21:25 1025 30.27 854 25.22 10.1 50.2 32 -5.9 21.3
21:30 1025 30.27 854 25.22 10.3 50.5 31 -6 21.2
21:35 1025 30.27 854 25.22 10.2 50.4 33 -5.2 22.7
21:40 1025 30.27 854 25.22 9.5 49 36 -4.7 23.5
21:45 1025 30.27 854 25.22 8.4 47 38 -5.1 22.7
21:50 1025 30.27 854 25.22 8.3 46.9 37 -5.4 22.2
21:55 1025 30.27 854 25.22 8.5 47.4 38 -5.1 22.9
22:00 1025 30.27 854 25.22 8.7 47.6 34 -6.1 21
22:05 1025 30.27 854 25.22 9.3 48.8 33 -5.9 21.3
22:10 1025 30.27 854 25.22 9.5 49 34 -5.6 21.9
22:15 1025 30.27 855 25.25 9.4 48.9 35 -5.2 22.6
22:20 1025 30.27 855 25.25 9.1 48.4 34 -5.8 21.5
22:25 1025 30.27 855 25.25 9.5 49 33 -5.8 21.5
22:30 1025 30.27 855 25.25 9.7 49.5 34 -5.5 22.2
22:35 1026 30.3 855 25.25 9.8 49.7 34 -5.5 22.2
22:40 1026 30.3 855 25.25 9.9 49.7 34 -5.3 22.4
22:45 1026 30.3 855 25.25 9.7 49.5 35 -5.1 22.8
22:50 1026 30.3 855 25.25 9.6 49.2 36 -4.8 23.4
22:55 1026 30.3 855 25.25 9.4 48.9 37 -4.7 23.5
23:00 1026 30.3 855 25.25 9.3 48.7 36 -4.9 23.1
23:05 1026 30.3 855 25.25 9.3 48.7 37 -4.7 23.6
23:10 1026 30.3 855 25.25 9.1 48.4 36 -5 23
23:15 1026 30.3 855 25.25 9.2 48.6 38 -4.3 24.3
23:20 1026 30.3 855 25.25 8.8 47.9 41 -3.6 25.5
23:25 1026 30.3 855 25.25 8.7 47.6 39 -4.5 23.9
23:30 1026 30.3 855 25.25 8.6 47.5 37 -5.1 22.8
23:35 1026 30.3 855 25.25 9 48.2 33 -6.3 20.6
23:40 1026 30.3 855 25.25 9.9 49.9 32 -6.2 20.9
23:45 1025 30.27 855 25.25 10.2 50.4 32 -5.6 21.9
23:50 1026 30.3 855 25.25 10.1 50.3 31 -6.2 20.9
23:55 1026 30.3 855 25.25 10.4 50.7 31 -6.1 21
24:00 1026 30.3 855 25.25 10.4 50.8 31 -5.8 21.6